Terminal Aerodrome Forecast
Issued by NWS Albany, NY

Home | Current Version | Previous Version | Text Only | Print | Product List | Glossary On
Versions: 1 2 3 4 5 6 7 8 9 10 11 12 13 14 15 16 17 18
000
FTUS41 KALY 060534
TAFPOU
TAF
KPOU 060534Z 0606/0706 00000KT P6SM BKN070 OVC120
     FM061200 VRB03KT P6SM BKN100 BKN250
     FM062100 VRB03KT P6SM SCT100 SCT250
     FM070100 00000KT P6SM SKC=

USA.gov is the U.S. government's official web portal to all federal, state and local government web resources and services.